Time;durP1;ratioP1;P1;durP2;ratioP2;P2;SDS_P1;SDS_P2;PMS_P1;PMS_P2;Temp;Humidity;BMP_temperature;BMP_pressure;BME280_temperature;BME280_humidity;BME280_pressure;Samples;Min_cycle;Max_cycle;Signal;HPM_P1;HPM_P2
2021/04/15 00:00:45;;;;;;;19.10;8.07;;;;;;;3.61;98.19;102351.00;4993900;28;20101;-74
2021/04/15 00:03:21;;;;;;;16.80;8.27;;;;;;;3.57;98.41;102359.78;4994651;28;20033;-74
2021/04/15 00:05:47;;;;;;;16.65;8.15;;;;;;;3.51;98.99;102358.16;4993494;28;20557;-74
2021/04/15 00:08:14;;;;;;;16.98;7.88;;;;;;;3.61;99.14;102359.00;4991526;28;20026;-74
2021/04/15 00:10:43;;;;;;;12.82;7.88;;;;;;;3.93;98.62;102349.94;4993984;28;20499;-74
2021/04/15 00:13:14;;;;;;;14.20;8.40;;;;;;;3.60;98.27;102352.03;4993960;28;20104;-73
2021/04/15 00:15:40;;;;;;;14.57;8.18;;;;;;;3.46;99.49;102351.00;4992374;28;20404;-74
2021/04/15 00:18:06;;;;;;;13.82;8.27;;;;;;;3.89;99.18;102359.53;4993647;28;20030;-74
2021/04/15 00:20:31;;;;;;;15.70;7.97;;;;;;;3.70;97.94;102353.91;4994366;28;20045;-74
2021/04/15 00:22:57;;;;;;;15.45;9.02;;;;;;;3.87;98.43;102349.09;4992156;28;20037;-74
2021/04/15 00:25:24;;;;;;;15.27;8.82;;;;;;;3.99;97.50;102346.97;4974814;28;20080;-74
2021/04/15 00:27:49;;;;;;;16.15;8.23;;;;;;;3.57;96.78;102357.09;4992738;28;20101;-74
2021/04/15 00:30:15;;;;;;;19.17;8.65;;;;;;;3.36;98.40;102350.97;4994171;28;20599;-74
2021/04/15 00:32:41;;;;;;;15.13;9.32;;;;;;;3.78;97.82;102348.06;4983909;28;20031;-74
2021/04/15 00:35:07;;;;;;;17.27;8.63;;;;;;;3.43;97.49;102354.16;4989161;28;20061;-74
2021/04/15 00:37:32;;;;;;;12.00;8.32;;;;;;;3.43;98.80;102350.69;4991480;28;20042;-74
2021/04/15 00:39:58;;;;;;;13.30;8.13;;;;;;;3.15;98.73;102352.00;4993761;28;20037;-74
2021/04/15 00:42:23;;;;;;;15.48;8.60;;;;;;;3.11;99.08;102350.13;4990782;28;20112;-74
2021/04/15 00:44:50;;;;;;;13.68;8.45;;;;;;;3.13;99.70;102353.31;4992527;28;20030;-74
2021/04/15 00:47:23;;;;;;;17.38;8.43;;;;;;;3.39;98.83;102347.78;4993662;28;20030;-74
2021/04/15 00:49:55;;;;;;;14.80;8.18;;;;;;;3.42;98.12;102354.44;4998438;28;20038;-74
2021/04/15 00:52:24;;;;;;;15.85;8.13;;;;;;;3.47;97.25;102341.94;4995559;28;20057;-74
2021/04/15 00:54:55;;;;;;;13.75;7.35;;;;;;;3.36;96.13;102350.16;4988265;28;20039;-74
2021/04/15 00:57:30;;;;;;;15.43;8.00;;;;;;;3.22;96.15;102343.75;4974455;28;20030;-74
2021/04/15 00:59:56;;;;;;;11.55;7.28;;;;;;;2.88;98.44;102342.59;5020367;23;20046;-71
2021/04/15 01:02:23;;;;;;;15.45;7.82;;;;;;;3.03;97.40;102346.13;4990294;28;20033;-71
2021/04/15 01:04:58;;;;;;;16.45;8.50;;;;;;;2.88;98.36;102339.94;5027105;28;20095;-71
2021/04/15 01:07:25;;;;;;;12.95;7.53;;;;;;;2.68;98.96;102348.66;4994433;28;20519;-70
2021/04/15 01:09:52;;;;;;;14.68;7.63;;;;;;;2.69;99.06;102351.03;4995685;28;20486;-71
2021/04/15 01:12:33;;;;;;;11.55;7.30;;;;;;;2.72;99.81;102352.38;5011729;28;20044;-71
2021/04/15 01:15:06;;;;;;;15.73;7.30;;;;;;;2.86;98.92;102356.16;5017742;28;20030;-71
2021/04/15 01:17:52;;;;;;;13.15;7.45;;;;;;;2.94;97.69;102350.34;4993543;28;20037;-71
2021/04/15 01:20:39;;;;;;;14.02;6.90;;;;;;;2.57;98.48;102347.00;5007897;28;20069;-71
2021/04/15 01:23:15;;;;;;;12.32;6.72;;;;;;;2.36;100.00;102347.97;5001879;28;20441;-71
2021/04/15 01:26:02;;;;;;;11.32;6.57;;;;;;;2.51;99.01;102350.69;5016654;28;20033;-71
2021/04/15 01:29:01;;;;;;;17.63;7.05;;;;;;;2.49;99.40;102337.69;4984515;28;20065;-71
2021/04/15 01:31:51;;;;;;;14.55;6.53;;;;;;;2.77;98.51;102352.41;5014436;28;20037;-71
2021/04/15 01:34:23;;;;;;;12.30;6.30;;;;;;;2.95;97.93;102353.78;5021117;28;20038;-70
2021/04/15 01:37:02;;;;;;;12.77;6.18;;;;;;;3.23;96.55;102354.13;5012725;28;20021;-71
2021/04/15 01:39:40;;;;;;;13.13;6.57;;;;;;;3.17;95.07;102349.88;4981399;28;20030;-71
2021/04/15 01:42:14;;;;;;;12.13;6.00;;;;;;;2.95;96.21;102348.47;5000764;28;20552;-70
2021/04/15 01:45:01;;;;;;;11.65;6.18;;;;;;;2.69;97.05;102350.25;5015936;28;20112;-71
2021/04/15 01:47:50;;;;;;;9.82;5.78;;;;;;;2.57;97.46;102341.69;5018702;28;20060;-71
2021/04/15 01:50:24;;;;;;;12.93;5.88;;;;;;;2.58;98.28;102343.28;4993067;28;20037;-69
2021/04/15 01:52:54;;;;;;;9.55;5.80;;;;;;;2.33;98.71;102353.78;5010814;28;20093;-71
2021/04/15 01:55:28;;;;;;;11.20;6.53;;;;;;;2.35;99.05;102349.81;5023288;28;20026;-71
2021/04/15 01:58:01;;;;;;;10.15;5.82;;;;;;;2.57;98.23;102352.31;5011319;28;20030;-69
2021/04/15 02:00:29;;;;;;;9.50;5.53;;;;;;;2.41;98.54;102362.09;5011921;28;20049;-70
2021/04/15 02:02:58;;;;;;;13.02;5.57;;;;;;;2.53;99.12;102359.22;4979086;28;20085;-71
2021/04/15 02:05:27;;;;;;;10.30;5.20;;;;;;;2.65;98.65;102357.16;5012388;28;20599;-68
2021/04/15 02:08:10;;;;;;;11.88;5.55;;;;;;;2.50;96.94;102357.06;5014993;28;20052;-71
2021/04/15 02:10:40;;;;;;;9.43;5.18;;;;;;;2.60;97.53;102357.13;5005726;28;20052;-71
2021/04/15 02:13:09;;;;;;;12.68;5.15;;;;;;;2.41;97.01;102362.09;4997705;28;20116;-70
2021/04/15 02:15:50;;;;;;;11.65;5.32;;;;;;;2.43;97.56;102361.81;4994629;28;20068;-71
2021/04/15 02:18:39;;;;;;;9.68;5.43;;;;;;;2.69;97.24;102351.03;4992476;28;20079;-71
2021/04/15 02:21:10;;;;;;;10.85;4.82;;;;;;;2.68;95.61;102359.28;5018162;28;20030;-71
2021/04/15 02:23:42;;;;;;;8.98;5.63;;;;;;;2.67;95.59;102353.16;5000425;28;20034;-70
2021/04/15 02:26:19;;;;;;;9.93;4.90;;;;;;;2.64;95.99;102358.19;5014264;28;20038;-71
2021/04/15 02:28:52;;;;;;;11.88;5.10;;;;;;;2.31;96.16;102364.69;5016635;28;20042;-69
2021/04/15 02:31:31;;;;;;;8.30;4.72;;;;;;;2.68;96.72;102353.97;5010286;28;20458;-71
2021/04/15 02:34:06;;;;;;;9.93;5.15;;;;;;;2.48;96.32;102361.84;4992739;28;20061;-70
2021/04/15 02:36:51;;;;;;;10.40;4.80;;;;;;;2.34;97.06;102358.06;5000415;28;20041;-71
2021/04/15 02:39:21;;;;;;;9.70;5.32;;;;;;;2.28;97.17;102359.09;4992037;28;20447;-69
2021/04/15 02:41:50;;;;;;;10.13;5.05;;;;;;;2.37;97.27;102354.88;5001377;28;20069;-71
2021/04/15 02:44:23;;;;;;;11.75;5.68;;;;;;;2.18;97.16;102357.16;5021516;28;20041;-71
2021/04/15 02:47:19;;;;;;;10.75;5.03;;;;;;;2.25;97.63;102365.69;5012186;28;20493;-70
2021/04/15 02:49:46;;;;;;;9.00;4.80;;;;;;;2.00;98.53;102356.75;5007999;28;20052;-71
2021/04/15 02:52:18;;;;;;;10.43;5.50;;;;;;;2.17;98.07;102362.75;5012870;28;20045;-70
2021/04/15 02:54:52;;;;;;;12.15;5.65;;;;;;;2.11;97.08;102363.75;5011188;28;20057;-71
2021/04/15 02:57:40;;;;;;;10.68;5.47;;;;;;;2.23;97.61;102370.47;5015325;28;20025;-71
2021/04/15 03:00:11;;;;;;;10.85;5.30;;;;;;;2.17;96.70;102362.75;5013035;28;20088;-71
2021/04/15 03:02:48;;;;;;;8.10;5.05;;;;;;;2.14;96.38;102360.56;5006820;28;20046;-71
2021/04/15 03:05:14;;;;;;;9.90;5.63;;;;;;;2.14;96.99;102369.34;5009721;28;20046;-71
2021/04/15 03:07:43;;;;;;;10.32;5.10;;;;;;;2.05;96.87;102372.75;5012578;28;20498;-71
2021/04/15 03:10:14;;;;;;;10.07;4.75;;;;;;;2.01;97.45;102369.00;5011233;28;20394;-71
2021/04/15 03:12:44;;;;;;;9.00;4.82;;;;;;;1.88;98.30;102369.44;5010468;28;20105;-71
2021/04/15 03:15:20;;;;;;;9.32;4.80;;;;;;;2.11;97.39;102374.38;4995327;28;20030;-70
2021/04/15 03:17:50;;;;;;;10.73;5.43;;;;;;;2.03;97.37;102365.03;4990871;28;20445;-70
2021/04/15 03:20:24;;;;;;;8.45;5.20;;;;;;;2.00;97.15;102364.72;5009535;28;20042;-70
2021/04/15 03:23:01;;;;;;;11.13;5.28;;;;;;;1.86;98.14;102382.94;5008306;28;20029;-70
2021/04/15 03:25:27;;;;;;;11.15;5.43;;;;;;;1.98;98.29;102375.59;5006773;28;20112;-71
2021/04/15 03:27:59;;;;;;;11.93;5.32;;;;;;;1.88;97.43;102370.22;5009952;28;20386;-71
2021/04/15 03:30:59;;;;;;;9.20;5.35;;;;;;;2.01;98.21;102371.66;4996909;28;20041;-70
2021/04/15 03:33:41;;;;;;;8.70;5.05;;;;;;;2.12;97.20;102376.78;5019633;28;20117;-71
2021/04/15 03:36:25;;;;;;;9.40;5.15;;;;;;;2.21;96.37;102371.78;5013920;28;20034;-71
2021/04/15 03:39:26;;;;;;;17.02;5.35;;;;;;;1.99;96.57;102371.09;4995430;28;20033;-71
2021/04/15 03:41:57;;;;;;;10.43;5.10;;;;;;;1.99;96.47;102371.91;5018129;28;20033;-71
2021/04/15 03:44:46;;;;;;;10.13;5.70;;;;;;;2.04;96.93;102373.78;5006825;28;20720;-71
2021/04/15 03:47:39;;;;;;;13.98;5.43;;;;;;;2.05;96.88;102378.88;5010126;28;20053;-71
2021/04/15 03:50:40;;;;;;;10.90;5.10;;;;;;;2.01;97.60;102384.94;5013203;28;20044;-70
2021/04/15 03:53:10;;;;;;;11.32;5.65;;;;;;;2.12;96.74;102378.63;4988624;28;20125;-71
2021/04/15 03:55:41;;;;;;;11.32;5.10;;;;;;;2.13;96.37;102373.06;5012345;28;20042;-70
2021/04/15 03:58:20;;;;;;;8.40;5.18;;;;;;;1.93;96.28;102382.75;5019531;28;20080;-71
2021/04/15 04:00:52;;;;;;;8.95;4.78;;;;;;;1.87;97.07;102378.44;4997306;28;20040;-71
2021/04/15 04:03:21;;;;;;;10.63;5.55;;;;;;;1.77;97.78;102374.66;5014122;28;20030;-70
2021/04/15 04:05:52;;;;;;;10.25;5.45;;;;;;;1.82;97.38;102380.00;4993608;28;20096;-70
2021/04/15 04:08:40;;;;;;;11.50;5.25;;;;;;;1.54;98.20;102384.78;5011748;28;20041;-70
2021/04/15 04:11:08;;;;;;;12.10;4.93;;;;;;;1.83;98.69;102384.28;5013835;28;20072;-70
2021/04/15 04:13:35;;;;;;;9.93;4.97;;;;;;;1.80;98.53;102379.44;5013644;28;20030;-71
2021/04/15 04:16:18;;;;;;;11.93;4.82;;;;;;;1.86;97.56;102382.16;5018436;28;20030;-70
2021/04/15 04:19:06;;;;;;;12.93;5.45;;;;;;;2.02;98.02;102387.31;4995728;28;20459;-70
2021/04/15 04:22:08;;;;;;;10.55;5.55;;;;;;;1.67;97.75;102384.38;5000901;28;20041;-70
2021/04/15 04:24:55;;;;;;;11.07;5.00;;;;;;;1.83;98.78;102384.28;5014821;28;20465;-70
2021/04/15 04:27:29;;;;;;;10.00;5.45;;;;;;;1.95;98.04;102385.94;5012209;28;20092;-71
2021/04/15 04:30:01;;;;;;;10.90;5.50;;;;;;;2.23;97.41;102389.06;5016397;28;20077;-71
2021/04/15 04:32:28;;;;;;;10.45;5.47;;;;;;;2.34;96.31;102389.94;4989595;28;20046;-71
2021/04/15 04:34:56;;;;;;;11.10;5.47;;;;;;;2.21;96.00;102387.72;5013125;28;20038;-71
2021/04/15 04:37:37;;;;;;;10.38;5.43;;;;;;;2.21;96.58;102398.34;4996281;28;20025;-71
2021/04/15 04:40:05;;;;;;;13.82;5.70;;;;;;;1.78;96.41;102399.38;5012983;28;20105;-71
2021/04/15 04:42:44;;;;;;;14.13;5.70;;;;;;;1.59;98.18;102400.75;4996129;28;20168;-71
2021/04/15 04:45:11;;;;;;;13.77;6.10;;;;;;;1.87;98.02;102405.00;5012394;28;20037;-71
2021/04/15 04:47:46;;;;;;;10.95;6.03;;;;;;;2.02;98.30;102397.13;5020743;28;20027;-71
2021/04/15 04:50:42;;;;;;;11.38;5.47;;;;;;;2.32;96.33;102408.00;4992408;28;20034;-71
2021/04/15 04:53:13;;;;;;;11.15;6.07;;;;;;;1.94;97.08;102409.03;5020737;28;20038;-71
2021/04/15 04:55:57;;;;;;;11.57;6.03;;;;;;;1.81;98.62;102412.94;5014602;28;20030;-70
2021/04/15 04:58:24;;;;;;;12.35;5.40;;;;;;;1.73;99.15;102413.38;4991589;28;20044;-71
2021/04/15 05:00:51;;;;;;;11.32;6.22;;;;;;;1.76;99.77;102410.22;5009773;28;20057;-71
2021/04/15 05:03:20;;;;;;;12.90;6.20;;;;;;;1.75;99.66;102416.59;5004449;28;20566;-70
2021/04/15 05:05:45;;;;;;;14.07;6.18;;;;;;;2.04;98.78;102416.28;5012853;28;20029;-71
2021/04/15 05:08:24;;;;;;;14.32;6.32;;;;;;;1.94;98.79;102414.34;5009422;28;20059;-71
2021/04/15 05:10:53;;;;;;;16.00;6.40;;;;;;;1.79;100.00;102423.00;5012527;28;20057;-71
2021/04/15 05:13:25;;;;;;;12.88;6.47;;;;;;;2.13;99.56;102426.19;5012597;28;20083;-71
2021/04/15 05:15:52;;;;;;;16.08;6.78;;;;;;;2.25;99.08;102426.00;5008238;28;20030;-71
2021/04/15 05:18:20;;;;;;;14.95;7.03;;;;;;;2.09;98.26;102426.97;5019507;28;20054;-71
2021/04/15 05:20:47;;;;;;;13.73;7.03;;;;;;;1.93;99.91;102428.69;5011751;28;20029;-71
2021/04/15 05:23:39;;;;;;;18.58;6.63;;;;;;;2.29;99.42;102440.38;5012633;28;20416;-71
2021/04/15 05:26:24;;;;;;;14.70;7.03;;;;;;;2.41;98.59;102428.53;5003269;28;20036;-71
2021/04/15 05:28:54;;;;;;;12.27;6.40;;;;;;;2.17;99.90;102434.47;5001927;28;20088;-71
2021/04/15 05:31:24;;;;;;;12.68;6.45;;;;;;;2.32;99.50;102437.22;5009040;28;20056;-71
2021/04/15 05:33:51;;;;;;;13.32;7.15;;;;;;;2.26;99.87;102439.06;5008469;28;20121;-71
2021/04/15 05:36:25;;;;;;;10.90;6.18;;;;;;;2.46;99.87;102443.69;5006226;28;20046;-71
2021/04/15 05:38:57;;;;;;;15.38;7.00;;;;;;;2.77;98.96;102442.03;5019050;28;20056;-71
2021/04/15 05:41:28;;;;;;;18.02;7.43;;;;;;;2.98;98.21;102444.50;4993745;28;20042;-71
2021/04/15 05:43:58;;;;;;;13.85;7.35;;;;;;;2.92;97.92;102448.25;5000903;28;20040;-71
2021/04/15 05:46:29;;;;;;;13.27;7.13;;;;;;;3.02;97.96;102452.81;5017053;28;20112;-71
2021/04/15 05:49:00;;;;;;;16.95;7.30;;;;;;;3.03;97.88;102457.06;5016152;28;20121;-71
2021/04/15 05:51:50;;;;;;;16.90;7.28;;;;;;;3.34;97.63;102448.13;5014740;28;20034;-72
2021/04/15 05:54:17;;;;;;;16.67;6.55;;;;;;;3.28;96.78;102455.28;4996678;28;20037;-71
2021/04/15 05:57:15;;;;;;;18.15;7.55;;;;;;;3.18;98.52;102455.25;5006184;28;20030;-72
2021/04/15 05:59:47;;;;;;;17.05;7.55;;;;;;;3.65;97.76;102450.63;5011920;28;20057;-71
2021/04/15 06:02:41;;;;;;;17.63;7.93;;;;;;;3.42;97.04;102458.25;5010425;28;20048;-71
2021/04/15 06:05:13;;;;;;;15.57;7.43;;;;;;;3.64;97.90;102451.66;4991928;28;20042;-71
2021/04/15 06:07:40;;;;;;;;;;;;;;;3.78;97.42;102456.47;5005339;28;20027;-71
2021/04/15 06:10:06;;;;;;;15.30;7.20;;;;;;;3.98;96.96;102451.16;5011574;28;19913;-70
2021/04/15 06:13:04;;;;;;;15.43;7.38;;;;;;;3.87;96.45;102460.22;5011201;28;20034;-70
2021/04/15 06:15:36;;;;;;;15.65;7.18;;;;;;;4.08;96.85;102459.19;4992577;28;20057;-71
2021/04/15 06:18:26;;;;;;;12.00;7.18;;;;;;;4.46;96.74;102461.28;4996101;28;20030;-71
2021/04/15 06:20:57;;;;;;;13.68;6.90;;;;;;;4.76;95.33;102468.44;5009731;28;20045;-71
2021/04/15 06:23:38;;;;;;;14.25;6.68;;;;;;;4.80;94.22;102467.59;5009436;28;20058;-71
2021/04/15 06:26:05;;;;;;;13.07;6.90;;;;;;;4.81;93.16;102469.22;4992928;28;20403;-71
2021/04/15 06:28:40;;;;;;;10.75;6.55;;;;;;;5.09;92.36;102460.56;5003649;28;20033;-72
2021/04/15 06:31:20;;;;;;;13.77;6.75;;;;;;;5.07;92.80;102468.06;5006267;28;20026;-71
2021/04/15 06:33:46;;;;;;;11.35;6.68;;;;;;;5.55;91.64;102473.72;5007672;28;20660;-71
2021/04/15 06:36:26;;;;;;;10.15;5.93;;;;;;;5.62;90.99;102475.03;5008005;28;20030;-71
2021/04/15 06:39:03;;;;;;;11.65;5.68;;;;;;;5.60;91.37;102477.16;5007580;28;20030;-71
2021/04/15 06:41:47;;;;;;;9.25;5.20;;;;;;;6.17;90.91;102482.72;5010071;28;20037;-72
2021/04/15 06:44:50;;;;;;;9.27;5.50;;;;;;;6.55;88.86;102474.88;5007137;28;20038;-71
2021/04/15 06:47:44;;;;;;;11.63;6.38;;;;;;;6.94;87.33;102470.19;4992110;28;20049;-72
2021/04/15 06:50:23;;;;;;;8.90;5.60;;;;;;;7.16;85.36;102473.94;5000170;28;20092;-71
2021/04/15 06:53:04;;;;;;;10.40;5.38;;;;;;;7.16;84.92;102478.50;5006486;28;20045;-71
2021/04/15 06:55:55;;;;;;;9.25;5.15;;;;;;;7.46;85.02;102467.38;5009557;28;20112;-71
2021/04/15 07:01:00;;;;;;;8.25;5.10;;;;;;;7.71;83.08;102467.03;4984619;28;20060;-74
2021/04/15 07:03:47;;;;;;;10.82;4.80;;;;;;;7.92;82.76;102473.69;4988732;28;20030;-74
2021/04/15 07:06:46;;;;;;;9.52;4.28;;;;;;;8.13;82.46;102472.28;4986215;28;20038;-75
2021/04/15 07:09:50;;;;;;;8.18;3.83;;;;;;;8.63;80.55;102470.63;4985235;28;20046;-74
2021/04/15 07:12:25;;;;;;;8.63;4.20;;;;;;;8.52;80.56;102471.91;4881029;29;20561;-75
2021/04/15 07:15:28;;;;;;;4.38;3.13;;;;;;;8.84;79.93;102474.56;4976144;28;20061;-74
2021/04/15 07:18:15;;;;;;;6.00;3.28;;;;;;;8.91;78.42;102466.09;4985923;28;20509;-73
2021/04/15 07:21:02;;;;;;;7.70;2.90;;;;;;;9.14;78.82;102470.47;4988689;28;20031;-74
2021/04/15 07:24:05;;;;;;;5.93;3.03;;;;;;;9.44;77.43;102466.34;4987569;28;20037;-75
2021/04/15 07:27:03;;;;;;;5.82;2.97;;;;;;;9.63;77.47;102469.69;4989078;28;20765;-74
2021/04/15 07:29:31;;;;;;;8.32;2.45;;;;;;;9.77;76.13;102467.75;4986726;28;20038;-74
2021/04/15 07:32:24;;;;;;;5.20;2.38;;;;;;;10.08;76.07;102465.16;4990030;28;20039;-75
2021/04/15 07:34:55;;;;;;;7.80;2.92;;;;;;;10.29;73.71;102471.66;4989092;28;20371;-74
2021/04/15 07:38:03;;;;;;;5.70;2.45;;;;;;;10.26;73.95;102475.75;4988950;28;20038;-73
2021/04/15 07:40:54;;;;;;;3.47;2.55;;;;;;;10.54;74.10;102469.13;4988879;28;20042;-74
2021/04/15 07:43:31;;;;;;;4.80;2.75;;;;;;;11.07;72.18;102474.38;4988483;28;20038;-75
2021/04/15 07:46:28;;;;;;;4.15;2.50;;;;;;;10.81;72.32;102481.59;4989867;28;20399;-74
2021/04/15 07:48:53;;;;;;;6.20;2.78;;;;;;;11.14;71.51;102469.34;4988693;28;20058;-74
2021/04/15 07:51:39;;;;;;;6.60;2.28;;;;;;;11.11;69.38;102475.34;4986901;28;20065;-74
2021/04/15 07:54:58;;;;;;;4.05;2.42;;;;;;;11.42;67.74;102472.59;4990106;28;20037;-74
2021/04/15 07:57:47;;;;;;;3.80;2.10;;;;;;;11.63;67.09;102476.25;4909641;29;20047;-74
2021/04/15 08:00:40;;;;;;;6.03;2.25;;;;;;;11.65;62.98;102474.84;4970044;28;20042;-74
2021/04/15 08:03:24;;;;;;;4.45;1.50;;;;;;;11.84;62.33;102471.03;4989021;28;20018;-73
2021/04/15 08:05:57;;;;;;;3.15;1.52;;;;;;;11.87;60.66;102465.00;4989830;28;20227;-74
2021/04/15 08:08:53;;;;;;;2.95;1.80;;;;;;;11.84;56.38;102477.25;4984178;28;20035;-73
2021/04/15 08:12:12;;;;;;;4.32;1.63;;;;;;;11.83;58.86;102477.56;4988833;28;20038;-73
2021/04/15 08:14:47;;;;;;;4.20;1.60;;;;;;;12.07;59.71;102475.97;4909981;29;20035;-73
2021/04/15 08:17:36;;;;;;;4.45;1.70;;;;;;;12.74;54.96;102488.84;4972069;28;20078;-74
2021/04/15 08:20:25;;;;;;;4.72;1.60;;;;;;;12.90;53.94;102482.56;4976717;28;20066;-74
2021/04/15 08:22:59;;;;;;;4.10;1.60;;;;;;;12.07;51.58;102475.97;4993433;28;20386;-74
2021/04/15 08:25:59;;;;;;;2.63;1.85;;;;;;;12.42;53.77;102482.91;4990786;28;20026;-74
2021/04/15 08:28:43;;;;;;;1.40;1.30;;;;;;;12.67;53.11;102482.03;4989444;28;20081;-74
2021/04/15 08:31:09;;;;;;;2.92;1.38;;;;;;;13.07;51.11;102479.00;4992506;28;20117;-74
2021/04/15 08:33:57;;;;;;;2.65;1.40;;;;;;;13.25;50.41;102472.38;4991619;28;20106;-74
2021/04/15 08:36:35;;;;;;;2.90;1.23;;;;;;;13.31;48.38;102480.00;4987799;28;20109;-74
2021/04/15 08:39:29;;;;;;;2.35;1.00;;;;;;;13.68;47.90;102477.50;4985335;28;20030;-75
2021/04/15 08:42:10;;;;;;;1.45;1.30;;;;;;;13.82;49.24;102473.41;4991320;28;20030;-74
2021/04/15 08:44:56;;;;;;;1.85;1.30;;;;;;;14.18;47.26;102465.44;4989336;28;20054;-74
2021/04/15 08:47:36;;;;;;;4.88;1.30;;;;;;;14.01;45.48;102473.72;4990204;28;20551;-74
2021/04/15 08:50:17;;;;;;;4.13;1.10;;;;;;;14.12;45.21;102463.25;4991733;28;20037;-74
2021/04/15 08:52:46;;;;;;;4.25;1.20;;;;;;;14.46;46.35;102465.63;4990136;28;20034;-75
2021/04/15 08:55:29;;;;;;;1.95;1.00;;;;;;;14.62;45.16;102463.06;4991198;28;20594;-74
2021/04/15 08:58:18;;;;;;;1.80;1.00;;;;;;;14.93;45.68;102455.97;4989309;28;20022;-74
2021/04/15 09:01:00;;;;;;;3.40;1.13;;;;;;;15.11;43.68;102462.75;4988373;28;20506;-73
2021/04/15 09:03:38;;;;;;;2.83;0.85;;;;;;;15.10;44.78;102460.34;4991626;28;20041;-74
2021/04/15 09:06:18;;;;;;;1.30;1.02;;;;;;;15.12;42.97;102468.94;4990416;28;20037;-72
2021/04/15 09:09:16;;;;;;;4.00;1.20;;;;;;;15.48;42.46;102471.66;4986872;28;20483;-73
2021/04/15 09:12:23;;;;;;;5.53;1.15;;;;;;;15.45;43.99;102471.56;4971209;28;20038;-74
2021/04/15 09:15:07;;;;;;;1.00;0.90;;;;;;;15.55;42.92;102465.63;4989437;28;20039;-75
2021/04/15 09:17:39;;;;;;;2.13;1.13;;;;;;;15.75;42.39;102460.06;4986675;28;20458;-74
2021/04/15 09:20:14;;;;;;;2.45;0.93;;;;;;;15.83;43.07;102458.31;4990073;28;20383;-74
2021/04/15 09:23:01;;;;;;;2.63;0.98;;;;;;;15.67;43.12;102452.81;4989149;28;20034;-74
2021/04/15 09:25:37;;;;;;;1.40;0.93;;;;;;;15.75;43.50;102456.53;4988950;28;20041;-74
2021/04/15 09:28:31;;;;;;;1.20;0.90;;;;;;;16.00;42.68;102456.09;4989223;28;20038;-75
2021/04/15 09:31:27;;;;;;;0.85;0.52;;;;;;;16.20;38.82;102454.31;4990501;28;20027;-74
2021/04/15 09:33:59;;;;;;;2.35;0.50;;;;;;;16.06;37.61;102453.91;5005126;28;20033;-74
2021/04/15 09:36:33;;;;;;;;;;;;;;;16.04;38.44;102448.03;4990469;28;20093;-73
2021/04/15 09:39:13;;;;;;;2.28;0.98;;;;;;;16.39;38.70;102453.63;4990703;28;19923;-75
2021/04/15 09:42:24;;;;;;;1.00;0.65;;;;;;;16.61;38.77;102453.81;4991026;28;20359;-76
2021/04/15 09:44:52;;;;;;;0.77;0.65;;;;;;;16.34;38.85;102451.94;4961335;28;20151;-73
2021/04/15 09:47:32;;;;;;;2.00;0.98;;;;;;;16.32;38.56;102448.78;4988764;28;20084;-73
2021/04/15 09:50:19;;;;;;;3.03;0.77;;;;;;;16.29;38.23;102444.03;4976029;28;20122;-73
2021/04/15 09:52:57;;;;;;;2.13;0.95;;;;;;;16.48;38.60;102448.78;4972962;28;20030;-74
2021/04/15 09:55:25;;;;;;;2.55;0.80;;;;;;;16.47;37.74;102453.47;4991298;28;20165;-73
2021/04/15 09:58:14;;;;;;;0.82;0.68;;;;;;;16.47;38.69;102453.47;4990308;28;20034;-73
2021/04/15 10:00:48;;;;;;;0.93;0.77;;;;;;;15.80;37.85;102432.63;4984093;28;20045;-74
2021/04/15 10:03:35;;;;;;;3.47;0.60;;;;;;;15.82;38.43;102433.06;4978386;28;20030;-73
2021/04/15 10:06:16;;;;;;;1.50;0.60;;;;;;;15.53;38.17;102438.84;4986205;28;20041;-73
2021/04/15 10:08:54;;;;;;;2.20;0.60;;;;;;;14.66;37.90;102434.13;4973465;28;20038;-73
2021/04/15 10:11:51;;;;;;;0.68;0.60;;;;;;;14.50;40.07;102431.28;4990235;28;20885;-72
2021/04/15 10:14:57;;;;;;;1.48;0.70;;;;;;;14.69;41.55;102423.41;4990910;28;20050;-73
2021/04/15 10:17:44;;;;;;;1.08;0.80;;;;;;;14.72;40.16;102422.75;4986225;28;20035;-73
2021/04/15 10:20:30;;;;;;;1.00;0.70;;;;;;;14.30;40.80;102435.66;4989810;28;20038;-73
2021/04/15 10:23:15;;;;;;;1.90;0.90;;;;;;;14.21;40.10;102429.53;4991044;28;20054;-74
2021/04/15 10:26:00;;;;;;;0.90;0.70;;;;;;;13.76;42.73;102428.72;4985056;28;20050;-72
2021/04/15 10:28:49;;;;;;;0.80;0.80;;;;;;;13.36;43.40;102430.28;4984953;28;20041;-74
2021/04/15 10:31:33;;;;;;;1.98;0.90;;;;;;;13.43;44.25;102436.75;4947432;28;20046;-72
2021/04/15 10:34:20;;;;;;;3.22;1.10;;;;;;;13.37;44.09;102426.47;4984367;28;20034;-71
2021/04/15 10:37:04;;;;;;;0.70;0.50;;;;;;;13.34;41.60;102419.00;4981843;28;20232;-71
2021/04/15 10:39:32;;;;;;;0.47;0.40;;;;;;;13.55;39.23;102420.59;4983641;28;20058;-73
2021/04/15 10:42:30;;;;;;;0.80;0.55;;;;;;;13.26;39.08;102420.66;4987073;28;20557;-72
2021/04/15 10:45:14;;;;;;;3.88;1.00;;;;;;;13.48;41.15;102422.25;4977853;28;20172;-73
2021/04/15 10:47:57;;;;;;;0.82;0.70;;;;;;;13.34;42.84;102421.72;4988059;28;20501;-74
2021/04/15 10:50:44;;;;;;;1.27;0.75;;;;;;;13.23;42.09;102426.72;4987360;28;20041;-75
2021/04/15 10:53:20;;;;;;;1.67;0.82;;;;;;;13.32;42.95;102423.94;4986231;28;20061;-74
2021/04/15 10:55:49;;;;;;;2.75;0.90;;;;;;;13.51;42.82;102425.06;4988369;28;20630;-74
2021/04/15 10:58:30;;;;;;;1.13;0.80;;;;;;;13.55;42.36;102425.19;4986319;28;20137;-73
2021/04/15 11:00:57;;;;;;;2.13;0.90;;;;;;;13.59;41.99;102421.50;4987205;28;20543;-73
2021/04/15 11:03:32;;;;;;;0.80;0.80;;;;;;;13.39;40.36;102414.19;4988836;28;20297;-73
2021/04/15 11:05:58;;;;;;;1.33;0.90;;;;;;;13.44;41.41;102416.69;4988939;28;20026;-73
2021/04/15 11:08:24;;;;;;;3.72;0.82;;;;;;;13.35;42.89;102417.88;4989015;28;20022;-73
2021/04/15 11:10:50;;;;;;;1.27;0.80;;;;;;;12.85;42.79;102425.19;4989127;28;20081;-73
2021/04/15 11:13:18;;;;;;;1.08;0.70;;;;;;;12.98;43.14;102433.06;4989110;28;20049;-73
2021/04/15 11:15:57;;;;;;;0.98;0.82;;;;;;;12.98;43.40;102435.75;4987245;28;20030;-73
2021/04/15 11:18:29;;;;;;;3.25;0.95;;;;;;;12.83;44.76;102440.94;4969880;28;20677;-73
2021/04/15 11:21:11;;;;;;;3.78;1.10;;;;;;;12.91;44.24;102429.28;4988436;28;20064;-73
2021/04/15 11:23:36;;;;;;;;;;;;;;;12.45;45.82;102430.09;4985300;28;20458;-73
2021/04/15 11:26:18;;;;;;;2.55;0.93;;;;;;;12.48;47.79;102426.78;4988973;28;20009;-73
2021/04/15 11:28:44;;;;;;;;;;;;;;;12.53;47.69;102431.97;4989857;28;20037;-73
2021/04/15 11:31:09;;;;;;;2.85;1.38;;;;;;;12.51;47.27;102416.09;4989485;28;19917;-73
2021/04/15 11:33:43;;;;;;;2.78;1.40;;;;;;;12.50;47.43;102417.19;4990058;28;20368;-73
2021/04/15 11:36:40;;;;;;;3.53;1.30;;;;;;;12.64;47.06;102420.50;4990087;28;20043;-73
2021/04/15 11:39:05;;;;;;;3.60;1.65;;;;;;;12.58;47.08;102415.59;4975087;28;20097;-73
2021/04/15 11:41:46;;;;;;;3.75;1.38;;;;;;;12.83;46.91;102420.09;4990184;28;20034;-73
2021/04/15 11:44:31;;;;;;;4.43;1.30;;;;;;;13.01;45.57;102426.19;4989602;28;20034;-73
2021/04/15 11:47:28;;;;;;;0.90;0.85;;;;;;;12.88;45.47;102411.78;4989030;28;20293;-73
2021/04/15 11:50:25;;;;;;;1.23;1.10;;;;;;;12.51;45.06;102413.41;4983211;28;20058;-73
2021/04/15 11:52:53;;;;;;;1.00;0.90;;;;;;;12.85;43.94;102414.34;4988895;28;20495;-73
2021/04/15 11:55:30;;;;;;;2.10;0.77;;;;;;;12.82;43.41;102415.00;4986717;28;20038;-73
2021/04/15 11:58:00;;;;;;;1.42;1.00;;;;;;;12.71;44.89;102409.19;4988098;28;20040;-73
2021/04/15 12:00:34;;;;;;;1.98;1.00;;;;;;;12.67;44.81;102405.53;4993027;28;20142;-73
2021/04/15 12:03:00;;;;;;;1.65;1.00;;;;;;;12.61;44.17;102404.94;4991851;28;20045;-73
2021/04/15 12:05:30;;;;;;;4.35;1.13;;;;;;;12.75;45.14;102412.03;4992328;28;20562;-74
2021/04/15 12:08:22;;;;;;;6.25;1.40;;;;;;;12.92;44.64;102409.22;4973632;28;20057;-73
2021/04/15 12:11:14;;;;;;;2.10;1.35;;;;;;;12.58;44.00;102408.28;4991145;28;20034;-73
2021/04/15 12:13:43;;;;;;;2.40;0.90;;;;;;;12.83;44.74;102405.78;4982940;28;20054;-73
2021/04/15 12:16:37;;;;;;;1.48;1.10;;;;;;;12.90;43.93;102400.63;4993740;28;20581;-73
2021/04/15 12:19:31;;;;;;;1.73;0.70;;;;;;;13.30;43.32;102396.41;4992676;28;20031;-73
2021/04/15 12:21:59;;;;;;;2.88;1.00;;;;;;;13.47;42.36;102385.50;4990167;28;20080;-73